sensor_id;sensor_type;location;lat;lon;timestamp;temperature;humidity
29203;DHT22;16245;51.170;4.884;2022-08-21T00:00:24;15.40;99.90
29203;DHT22;16245;51.170;4.884;2022-08-21T00:02:56;15.40;99.90
29203;DHT22;16245;51.170;4.884;2022-08-21T00:05:23;15.30;99.90
29203;DHT22;16245;51.170;4.884;2022-08-21T00:07:49;15.30;99.90
29203;DHT22;16245;51.170;4.884;2022-08-21T00:10:15;15.20;99.90
29203;DHT22;16245;51.170;4.884;2022-08-21T00:12:41;15.20;99.90
29203;DHT22;16245;51.170;4.884;2022-08-21T00:15:10;15.20;99.90
29203;DHT22;16245;51.170;4.884;2022-08-21T00:17:36;15.20;99.90
29203;DHT22;16245;51.170;4.884;2022-08-21T00:20:06;15.20;99.90
29203;DHT22;16245;51.170;4.884;2022-08-21T00:22:32;15.20;99.90
29203;DHT22;16245;51.170;4.884;2022-08-21T00:24:58;15.20;99.90
29203;DHT22;16245;51.170;4.884;2022-08-21T00:27:24;15.10;99.90
29203;DHT22;16245;51.170;4.884;2022-08-21T00:29:49;15.00;99.90
29203;DHT22;16245;51.170;4.884;2022-08-21T00:32:23;15.10;99.90
29203;DHT22;16245;51.170;4.884;2022-08-21T00:34:50;15.00;99.90
29203;DHT22;16245;51.170;4.884;2022-08-21T00:37:15;15.00;99.90
29203;DHT22;16245;51.170;4.884;2022-08-21T00:39:41;15.00;99.90
29203;DHT22;16245;51.170;4.884;2022-08-21T00:42:07;15.00;99.90
29203;DHT22;16245;51.170;4.884;2022-08-21T00:44:33;14.90;99.90
29203;DHT22;16245;51.170;4.884;2022-08-21T00:46:59;14.90;99.90
29203;DHT22;16245;51.170;4.884;2022-08-21T00:49:24;14.90;99.90
29203;DHT22;16245;51.170;4.884;2022-08-21T00:51:54;14.90;99.90
29203;DHT22;16245;51.170;4.884;2022-08-21T00:54:22;14.80;99.90
29203;DHT22;16245;51.170;4.884;2022-08-21T00:56:56;14.80;99.90
29203;DHT22;16245;51.170;4.884;2022-08-21T00:59:23;14.80;99.90
29203;DHT22;16245;51.170;4.884;2022-08-21T01:01:50;14.80;99.90
29203;DHT22;16245;51.170;4.884;2022-08-21T01:04:16;14.80;99.90
29203;DHT22;16245;51.170;4.884;2022-08-21T01:06:43;14.80;99.90
29203;DHT22;16245;51.170;4.884;2022-08-21T01:09:08;14.80;99.90
29203;DHT22;16245;51.170;4.884;2022-08-21T01:11:34;14.90;99.90
29203;DHT22;16245;51.170;4.884;2022-08-21T01:14:01;14.90;99.90
29203;DHT22;16245;51.170;4.884;2022-08-21T01:16:27;14.90;99.90
29203;DHT22;16245;51.170;4.884;2022-08-21T01:18:53;14.90;99.90
29203;DHT22;16245;51.170;4.884;2022-08-21T01:21:22;15.00;99.90
29203;DHT22;16245;51.170;4.884;2022-08-21T01:23:52;15.00;99.90
29203;DHT22;16245;51.170;4.884;2022-08-21T01:26:21;15.00;99.90
29203;DHT22;16245;51.170;4.884;2022-08-21T01:29:15;14.90;99.90
29203;DHT22;16245;51.170;4.884;2022-08-21T01:31:42;14.90;99.90
29203;DHT22;16245;51.170;4.884;2022-08-21T01:34:10;14.90;99.90
29203;DHT22;16245;51.170;4.884;2022-08-21T01:36:36;15.00;99.90
29203;DHT22;16245;51.170;4.884;2022-08-21T01:39:03;15.00;99.90
29203;DHT22;16245;51.170;4.884;2022-08-21T01:41:29;15.00;99.90
29203;DHT22;16245;51.170;4.884;2022-08-21T01:43:56;15.00;99.90
29203;DHT22;16245;51.170;4.884;2022-08-21T01:46:21;15.00;99.90
29203;DHT22;16245;51.170;4.884;2022-08-21T01:48:47;15.10;99.90
29203;DHT22;16245;51.170;4.884;2022-08-21T01:51:14;15.30;99.90
29203;DHT22;16245;51.170;4.884;2022-08-21T01:53:39;15.40;99.90
29203;DHT22;16245;51.170;4.884;2022-08-21T01:56:08;15.40;99.90
29203;DHT22;16245;51.170;4.884;2022-08-21T01:58:35;15.50;99.90
29203;DHT22;16245;51.170;4.884;2022-08-21T02:01:01;15.50;99.90
29203;DHT22;16245;51.170;4.884;2022-08-21T02:03:28;15.50;99.90
29203;DHT22;16245;51.170;4.884;2022-08-21T02:05:54;15.40;99.90
29203;DHT22;16245;51.170;4.884;2022-08-21T02:08:20;15.30;99.90
29203;DHT22;16245;51.170;4.884;2022-08-21T02:10:49;15.20;99.90
29203;DHT22;16245;51.170;4.884;2022-08-21T02:13:15;15.20;99.90
29203;DHT22;16245;51.170;4.884;2022-08-21T02:15:41;15.10;99.90
29203;DHT22;16245;51.170;4.884;2022-08-21T02:18:07;15.10;99.90
29203;DHT22;16245;51.170;4.884;2022-08-21T02:20:47;15.10;99.90
29203;DHT22;16245;51.170;4.884;2022-08-21T02:23:14;15.10;99.90
29203;DHT22;16245;51.170;4.884;2022-08-21T02:25:40;15.00;99.90
29203;DHT22;16245;51.170;4.884;2022-08-21T02:28:10;15.00;99.90
29203;DHT22;16245;51.170;4.884;2022-08-21T02:30:41;14.90;99.90
29203;DHT22;16245;51.170;4.884;2022-08-21T02:33:08;14.90;99.90
29203;DHT22;16245;51.170;4.884;2022-08-21T02:35:35;14.90;99.90
29203;DHT22;16245;51.170;4.884;2022-08-21T02:38:05;14.90;99.90
29203;DHT22;16245;51.170;4.884;2022-08-21T02:40:34;14.80;99.90
29203;DHT22;16245;51.170;4.884;2022-08-21T02:43:02;14.70;99.90
29203;DHT22;16245;51.170;4.884;2022-08-21T02:45:29;14.70;99.90
29203;DHT22;16245;51.170;4.884;2022-08-21T02:48:01;14.70;99.90
29203;DHT22;16245;51.170;4.884;2022-08-21T02:50:33;14.70;99.90
29203;DHT22;16245;51.170;4.884;2022-08-21T02:52:59;14.70;99.90
29203;DHT22;16245;51.170;4.884;2022-08-21T02:55:27;14.60;99.90
29203;DHT22;16245;51.170;4.884;2022-08-21T02:57:54;14.50;99.90
29203;DHT22;16245;51.170;4.884;2022-08-21T03:00:20;14.50;99.90
29203;DHT22;16245;51.170;4.884;2022-08-21T03:02:47;14.50;99.90
29203;DHT22;16245;51.170;4.884;2022-08-21T03:05:14;14.40;99.90
29203;DHT22;16245;51.170;4.884;2022-08-21T03:07:41;14.40;99.90
29203;DHT22;16245;51.170;4.884;2022-08-21T03:10:08;14.40;99.90
29203;DHT22;16245;51.170;4.884;2022-08-21T03:12:34;14.40;99.90
29203;DHT22;16245;51.170;4.884;2022-08-21T03:15:02;14.30;99.90
29203;DHT22;16245;51.170;4.884;2022-08-21T03:17:29;14.30;99.90
29203;DHT22;16245;51.170;4.884;2022-08-21T03:19:55;14.20;99.90
29203;DHT22;16245;51.170;4.884;2022-08-21T03:22:21;14.20;99.90
29203;DHT22;16245;51.170;4.884;2022-08-21T03:24:47;14.20;99.90
29203;DHT22;16245;51.170;4.884;2022-08-21T03:27:13;14.20;99.90
29203;DHT22;16245;51.170;4.884;2022-08-21T03:29:39;14.20;99.90
29203;DHT22;16245;51.170;4.884;2022-08-21T03:32:05;14.20;99.90
29203;DHT22;16245;51.170;4.884;2022-08-21T03:34:35;14.20;99.90
29203;DHT22;16245;51.170;4.884;2022-08-21T03:37:01;14.20;99.90
29203;DHT22;16245;51.170;4.884;2022-08-21T03:39:27;14.30;99.90
29203;DHT22;16245;51.170;4.884;2022-08-21T03:41:53;14.20;99.90
29203;DHT22;16245;51.170;4.884;2022-08-21T03:44:19;14.10;99.90
29203;DHT22;16245;51.170;4.884;2022-08-21T03:46:45;14.00;99.90
29203;DHT22;16245;51.170;4.884;2022-08-21T03:49:10;14.10;99.90
29203;DHT22;16245;51.170;4.884;2022-08-21T03:51:37;13.90;99.90
29203;DHT22;16245;51.170;4.884;2022-08-21T03:54:03;13.90;99.90
29203;DHT22;16245;51.170;4.884;2022-08-21T03:56:29;14.00;99.90
29203;DHT22;16245;51.170;4.884;2022-08-21T03:58:54;14.00;99.90
29203;DHT22;16245;51.170;4.884;2022-08-21T04:01:21;14.00;99.90
29203;DHT22;16245;51.170;4.884;2022-08-21T04:03:46;13.90;99.90
29203;DHT22;16245;51.170;4.884;2022-08-21T04:06:12;13.90;99.90
29203;DHT22;16245;51.170;4.884;2022-08-21T04:08:38;13.90;99.90
29203;DHT22;16245;51.170;4.884;2022-08-21T04:11:04;14.00;99.90
29203;DHT22;16245;51.170;4.884;2022-08-21T04:13:30;13.90;99.90
29203;DHT22;16245;51.170;4.884;2022-08-21T04:15:56;13.80;99.90
29203;DHT22;16245;51.170;4.884;2022-08-21T04:18:23;13.80;99.90
29203;DHT22;16245;51.170;4.884;2022-08-21T04:20:51;13.90;99.90
29203;DHT22;16245;51.170;4.884;2022-08-21T04:23:19;13.80;99.90
29203;DHT22;16245;51.170;4.884;2022-08-21T04:25:45;13.80;99.90
29203;DHT22;16245;51.170;4.884;2022-08-21T04:28:10;13.70;99.90
29203;DHT22;16245;51.170;4.884;2022-08-21T04:30:36;13.70;99.90
29203;DHT22;16245;51.170;4.884;2022-08-21T04:33:02;13.70;99.90
29203;DHT22;16245;51.170;4.884;2022-08-21T04:35:29;13.70;99.90
29203;DHT22;16245;51.170;4.884;2022-08-21T04:37:55;13.80;99.90
29203;DHT22;16245;51.170;4.884;2022-08-21T04:40:23;13.70;99.90
29203;DHT22;16245;51.170;4.884;2022-08-21T04:42:52;13.60;99.90
29203;DHT22;16245;51.170;4.884;2022-08-21T04:45:27;13.60;99.90
29203;DHT22;16245;51.170;4.884;2022-08-21T04:47:56;13.70;99.90
29203;DHT22;16245;51.170;4.884;2022-08-21T04:50:29;13.70;99.90
29203;DHT22;16245;51.170;4.884;2022-08-21T04:52:56;13.70;99.90
29203;DHT22;16245;51.170;4.884;2022-08-21T04:55:22;13.80;99.90
29203;DHT22;16245;51.170;4.884;2022-08-21T04:57:50;13.80;99.90
29203;DHT22;16245;51.170;4.884;2022-08-21T05:00:17;13.80;99.90
29203;DHT22;16245;51.170;4.884;2022-08-21T05:02:44;13.90;99.90
29203;DHT22;16245;51.170;4.884;2022-08-21T05:05:11;13.90;99.90
29203;DHT22;16245;51.170;4.884;2022-08-21T05:07:37;14.00;99.90
29203;DHT22;16245;51.170;4.884;2022-08-21T05:10:03;14.10;99.90
29203;DHT22;16245;51.170;4.884;2022-08-21T05:12:31;14.20;99.90
29203;DHT22;16245;51.170;4.884;2022-08-21T05:14:57;14.30;99.90
29203;DHT22;16245;51.170;4.884;2022-08-21T05:17:22;14.50;99.90
29203;DHT22;16245;51.170;4.884;2022-08-21T05:19:48;14.70;99.90
29203;DHT22;16245;51.170;4.884;2022-08-21T05:22:24;14.70;99.90
29203;DHT22;16245;51.170;4.884;2022-08-21T05:24:50;14.70;99.90
29203;DHT22;16245;51.170;4.884;2022-08-21T05:27:16;14.80;99.90
29203;DHT22;16245;51.170;4.884;2022-08-21T05:29:43;14.90;99.90
29203;DHT22;16245;51.170;4.884;2022-08-21T05:32:10;15.00;99.90
29203;DHT22;16245;51.170;4.884;2022-08-21T05:34:36;15.00;99.90
29203;DHT22;16245;51.170;4.884;2022-08-21T05:37:03;15.10;99.90
29203;DHT22;16245;51.170;4.884;2022-08-21T05:39:28;15.20;99.90
29203;DHT22;16245;51.170;4.884;2022-08-21T05:41:54;15.10;99.90
29203;DHT22;16245;51.170;4.884;2022-08-21T05:44:19;15.30;99.90
29203;DHT22;16245;51.170;4.884;2022-08-21T05:46:45;15.40;99.90
29203;DHT22;16245;51.170;4.884;2022-08-21T05:49:11;15.50;99.90
29203;DHT22;16245;51.170;4.884;2022-08-21T05:51:38;15.70;99.90
29203;DHT22;16245;51.170;4.884;2022-08-21T05:54:04;15.90;99.90
29203;DHT22;16245;51.170;4.884;2022-08-21T05:56:30;16.00;99.90
29203;DHT22;16245;51.170;4.884;2022-08-21T05:58:55;16.00;99.90
29203;DHT22;16245;51.170;4.884;2022-08-21T06:01:21;15.90;99.90
29203;DHT22;16245;51.170;4.884;2022-08-21T06:03:47;16.00;99.90
29203;DHT22;16245;51.170;4.884;2022-08-21T06:06:13;16.10;99.90
29203;DHT22;16245;51.170;4.884;2022-08-21T06:08:39;16.00;99.90
29203;DHT22;16245;51.170;4.884;2022-08-21T06:11:06;16.00;99.90
29203;DHT22;16245;51.170;4.884;2022-08-21T06:13:32;16.10;99.90
29203;DHT22;16245;51.170;4.884;2022-08-21T06:18:30;16.20;99.90
29203;DHT22;16245;51.170;4.884;2022-08-21T06:20:55;16.30;99.90
29203;DHT22;16245;51.170;4.884;2022-08-21T06:23:21;16.40;99.90
29203;DHT22;16245;51.170;4.884;2022-08-21T06:25:47;16.50;99.90
29203;DHT22;16245;51.170;4.884;2022-08-21T06:28:12;16.60;99.90
29203;DHT22;16245;51.170;4.884;2022-08-21T06:30:39;16.60;99.90
29203;DHT22;16245;51.170;4.884;2022-08-21T06:33:05;16.70;99.90
29203;DHT22;16245;51.170;4.884;2022-08-21T06:35:33;16.80;99.90
29203;DHT22;16245;51.170;4.884;2022-08-21T06:37:59;16.90;99.90
29203;DHT22;16245;51.170;4.884;2022-08-21T06:40:25;17.00;99.90
29203;DHT22;16245;51.170;4.884;2022-08-21T06:42:51;17.10;99.90
29203;DHT22;16245;51.170;4.884;2022-08-21T06:45:17;17.10;99.90
29203;DHT22;16245;51.170;4.884;2022-08-21T06:47:42;17.10;99.90
29203;DHT22;16245;51.170;4.884;2022-08-21T06:50:09;17.10;99.90
29203;DHT22;16245;51.170;4.884;2022-08-21T06:52:35;17.20;99.90
29203;DHT22;16245;51.170;4.884;2022-08-21T06:55:02;17.30;99.90
29203;DHT22;16245;51.170;4.884;2022-08-21T06:57:29;17.40;99.90
29203;DHT22;16245;51.170;4.884;2022-08-21T06:59:55;17.40;99.90
29203;DHT22;16245;51.170;4.884;2022-08-21T07:02:21;17.60;99.90
29203;DHT22;16245;51.170;4.884;2022-08-21T07:04:47;17.70;99.90
29203;DHT22;16245;51.170;4.884;2022-08-21T07:07:12;17.90;99.90
29203;DHT22;16245;51.170;4.884;2022-08-21T07:09:38;18.20;99.90
29203;DHT22;16245;51.170;4.884;2022-08-21T07:12:05;18.30;99.90
29203;DHT22;16245;51.170;4.884;2022-08-21T07:14:32;18.60;99.90
29203;DHT22;16245;51.170;4.884;2022-08-21T07:16:57;19.20;99.90
29203;DHT22;16245;51.170;4.884;2022-08-21T07:19:23;19.60;99.90
29203;DHT22;16245;51.170;4.884;2022-08-21T07:21:49;20.10;99.90
29203;DHT22;16245;51.170;4.884;2022-08-21T07:24:14;20.90;99.90
29203;DHT22;16245;51.170;4.884;2022-08-21T07:26:40;21.90;99.90
29203;DHT22;16245;51.170;4.884;2022-08-21T07:29:06;22.60;99.90
29203;DHT22;16245;51.170;4.884;2022-08-21T07:31:32;23.10;99.90
29203;DHT22;16245;51.170;4.884;2022-08-21T07:33:59;24.00;99.90
29203;DHT22;16245;51.170;4.884;2022-08-21T07:36:25;24.50;99.90
29203;DHT22;16245;51.170;4.884;2022-08-21T07:38:50;25.00;99.90
29203;DHT22;16245;51.170;4.884;2022-08-21T07:41:24;25.10;99.90
29203;DHT22;16245;51.170;4.884;2022-08-21T07:43:51;24.90;99.90
29203;DHT22;16245;51.170;4.884;2022-08-21T07:46:16;25.00;99.90
29203;DHT22;16245;51.170;4.884;2022-08-21T07:48:42;25.60;99.90
29203;DHT22;16245;51.170;4.884;2022-08-21T07:51:12;26.00;99.90
29203;DHT22;16245;51.170;4.884;2022-08-21T07:53:38;26.10;99.80
29203;DHT22;16245;51.170;4.884;2022-08-21T07:56:05;26.60;99.90
29203;DHT22;16245;51.170;4.884;2022-08-21T07:58:32;27.20;98.40
29203;DHT22;16245;51.170;4.884;2022-08-21T08:00:57;27.60;98.00
29203;DHT22;16245;51.170;4.884;2022-08-21T08:03:23;28.00;96.70
29203;DHT22;16245;51.170;4.884;2022-08-21T08:05:49;28.60;95.40
29203;DHT22;16245;51.170;4.884;2022-08-21T08:08:15;28.70;95.00
29203;DHT22;16245;51.170;4.884;2022-08-21T08:10:41;28.80;94.30
29203;DHT22;16245;51.170;4.884;2022-08-21T08:13:06;28.60;94.00
29203;DHT22;16245;51.170;4.884;2022-08-21T08:15:32;28.60;93.90
29203;DHT22;16245;51.170;4.884;2022-08-21T08:17:58;28.60;94.30
29203;DHT22;16245;51.170;4.884;2022-08-21T08:20:24;29.20;93.80
29203;DHT22;16245;51.170;4.884;2022-08-21T08:22:53;29.70;93.20
29203;DHT22;16245;51.170;4.884;2022-08-21T08:25:20;29.40;93.00
29203;DHT22;16245;51.170;4.884;2022-08-21T08:27:46;28.50;93.10
29203;DHT22;16245;51.170;4.884;2022-08-21T08:30:14;28.20;95.10
29203;DHT22;16245;51.170;4.884;2022-08-21T08:32:41;28.20;93.90
29203;DHT22;16245;51.170;4.884;2022-08-21T08:35:08;28.50;94.50
29203;DHT22;16245;51.170;4.884;2022-08-21T08:37:34;28.20;93.70
29203;DHT22;16245;51.170;4.884;2022-08-21T08:40:04;27.90;93.60
29203;DHT22;16245;51.170;4.884;2022-08-21T08:42:32;27.80;94.20
29203;DHT22;16245;51.170;4.884;2022-08-21T08:45:12;28.30;94.10
29203;DHT22;16245;51.170;4.884;2022-08-21T08:47:42;28.80;94.40
29203;DHT22;16245;51.170;4.884;2022-08-21T08:50:21;28.80;93.40
29203;DHT22;16245;51.170;4.884;2022-08-21T08:52:54;28.50;92.10
29203;DHT22;16245;51.170;4.884;2022-08-21T08:55:30;28.70;92.60
29203;DHT22;16245;51.170;4.884;2022-08-21T08:57:58;28.90;91.40
29203;DHT22;16245;51.170;4.884;2022-08-21T09:00:24;28.60;91.20
29203;DHT22;16245;51.170;4.884;2022-08-21T09:02:54;28.60;91.90
29203;DHT22;16245;51.170;4.884;2022-08-21T09:05:30;28.70;91.60
29203;DHT22;16245;51.170;4.884;2022-08-21T09:11:00;29.70;91.00
29203;DHT22;16245;51.170;4.884;2022-08-21T09:16:25;29.40;87.90
29203;DHT22;16245;51.170;4.884;2022-08-21T09:21:53;29.60;89.00
29203;DHT22;16245;51.170;4.884;2022-08-21T09:27:12;28.10;88.30
29203;DHT22;16245;51.170;4.884;2022-08-21T09:29:45;27.50;90.40
29203;DHT22;16245;51.170;4.884;2022-08-21T09:32:28;27.30;90.80
29203;DHT22;16245;51.170;4.884;2022-08-21T09:37:57;26.70;91.80
29203;DHT22;16245;51.170;4.884;2022-08-21T09:40:38;27.10;93.60
29203;DHT22;16245;51.170;4.884;2022-08-21T09:43:17;27.80;92.00
29203;DHT22;16245;51.170;4.884;2022-08-21T09:45:44;28.40;90.60
29203;DHT22;16245;51.170;4.884;2022-08-21T09:48:13;28.20;89.60
29203;DHT22;16245;51.170;4.884;2022-08-21T09:50:39;28.30;90.50
29203;DHT22;16245;51.170;4.884;2022-08-21T09:53:17;28.30;88.70
29203;DHT22;16245;51.170;4.884;2022-08-21T09:55:52;28.20;90.80
29203;DHT22;16245;51.170;4.884;2022-08-21T09:58:40;27.80;90.80
29203;DHT22;16245;51.170;4.884;2022-08-21T10:01:15;27.80;90.40
29203;DHT22;16245;51.170;4.884;2022-08-21T10:03:41;28.00;89.10
29203;DHT22;16245;51.170;4.884;2022-08-21T10:06:09;28.00;88.60
29203;DHT22;16245;51.170;4.884;2022-08-21T10:08:38;28.00;87.20
29203;DHT22;16245;51.170;4.884;2022-08-21T10:11:10;28.20;88.40
29203;DHT22;16245;51.170;4.884;2022-08-21T10:21:57;29.10;86.40
29203;DHT22;16245;51.170;4.884;2022-08-21T10:29:54;28.80;85.10
29203;DHT22;16245;51.170;4.884;2022-08-21T10:35:59;28.10;85.20
29203;DHT22;16245;51.170;4.884;2022-08-21T10:46:56;26.50;91.10
29203;DHT22;16245;51.170;4.884;2022-08-21T10:52:24;27.20;90.70
29203;DHT22;16245;51.170;4.884;2022-08-21T10:55:08;27.90;88.20
29203;DHT22;16245;51.170;4.884;2022-08-21T10:57:49;28.20;87.10
29203;DHT22;16245;51.170;4.884;2022-08-21T11:00:22;28.70;86.20
29203;DHT22;16245;51.170;4.884;2022-08-21T11:03:02;28.70;88.70
29203;DHT22;16245;51.170;4.884;2022-08-21T11:05:31;29.40;86.10
29203;DHT22;16245;51.170;4.884;2022-08-21T11:08:37;29.60;85.00
29203;DHT22;16245;51.170;4.884;2022-08-21T11:11:27;29.20;84.00
29203;DHT22;16245;51.170;4.884;2022-08-21T11:17:07;27.80;86.10
29203;DHT22;16245;51.170;4.884;2022-08-21T11:19:45;28.40;86.30
29203;DHT22;16245;51.170;4.884;2022-08-21T11:24:57;28.00;85.80
29203;DHT22;16245;51.170;4.884;2022-08-21T11:30:20;27.80;88.30
29203;DHT22;16245;51.170;4.884;2022-08-21T11:33:20;28.40;88.30
29203;DHT22;16245;51.170;4.884;2022-08-21T11:36:15;28.40;85.10
29203;DHT22;16245;51.170;4.884;2022-08-21T11:41:41;27.60;86.90
29203;DHT22;16245;51.170;4.884;2022-08-21T11:50:02;26.90;90.40
29203;DHT22;16245;51.170;4.884;2022-08-21T11:52:49;27.00;89.20
29203;DHT22;16245;51.170;4.884;2022-08-21T11:57:51;27.30;89.10
29203;DHT22;16245;51.170;4.884;2022-08-21T12:00:26;27.30;87.00
29203;DHT22;16245;51.170;4.884;2022-08-21T12:03:05;27.60;88.70
29203;DHT22;16245;51.170;4.884;2022-08-21T12:05:38;27.60;84.70
29203;DHT22;16245;51.170;4.884;2022-08-21T12:11:23;27.00;85.70
29203;DHT22;16245;51.170;4.884;2022-08-21T12:14:16;26.60;86.10
29203;DHT22;16245;51.170;4.884;2022-08-21T12:16:44;26.50;87.90
29203;DHT22;16245;51.170;4.884;2022-08-21T12:19:33;26.40;87.60
29203;DHT22;16245;51.170;4.884;2022-08-21T12:27:14;26.40;88.60
29203;DHT22;16245;51.170;4.884;2022-08-21T12:29:54;26.60;87.80
29203;DHT22;16245;51.170;4.884;2022-08-21T12:32:29;26.80;88.10
29203;DHT22;16245;51.170;4.884;2022-08-21T12:35:10;26.90;90.10
29203;DHT22;16245;51.170;4.884;2022-08-21T12:37:40;27.00;89.20
29203;DHT22;16245;51.170;4.884;2022-08-21T12:42:52;27.30;89.90
29203;DHT22;16245;51.170;4.884;2022-08-21T12:45:27;27.50;89.10
29203;DHT22;16245;51.170;4.884;2022-08-21T12:48:03;27.70;85.70
29203;DHT22;16245;51.170;4.884;2022-08-21T12:50:51;27.60;86.30
29203;DHT22;16245;51.170;4.884;2022-08-21T12:55:56;27.70;85.30
29203;DHT22;16245;51.170;4.884;2022-08-21T12:58:27;27.70;83.60
29203;DHT22;16245;51.170;4.884;2022-08-21T13:01:02;27.50;82.90
29203;DHT22;16245;51.170;4.884;2022-08-21T13:03:29;27.50;84.50
29203;DHT22;16245;51.170;4.884;2022-08-21T13:05:55;27.40;85.30
29203;DHT22;16245;51.170;4.884;2022-08-21T13:08:21;27.40;86.30
29203;DHT22;16245;51.170;4.884;2022-08-21T13:11:05;27.50;86.50
29203;DHT22;16245;51.170;4.884;2022-08-21T13:13:32;27.70;83.30
29203;DHT22;16245;51.170;4.884;2022-08-21T13:16:03;27.80;83.60
29203;DHT22;16245;51.170;4.884;2022-08-21T13:18:33;27.80;83.90
29203;DHT22;16245;51.170;4.884;2022-08-21T13:21:14;27.90;86.20
29203;DHT22;16245;51.170;4.884;2022-08-21T13:23:40;27.80;82.10
29203;DHT22;16245;51.170;4.884;2022-08-21T13:26:18;27.50;82.90
29203;DHT22;16245;51.170;4.884;2022-08-21T13:28:45;27.40;85.60
29203;DHT22;16245;51.170;4.884;2022-08-21T13:31:17;27.20;86.40
29203;DHT22;16245;51.170;4.884;2022-08-21T13:33:43;27.10;84.00
29203;DHT22;16245;51.170;4.884;2022-08-21T13:36:32;27.10;85.80
29203;DHT22;16245;51.170;4.884;2022-08-21T13:38:59;27.20;83.40
29203;DHT22;16245;51.170;4.884;2022-08-21T13:41:28;27.30;81.20
29203;DHT22;16245;51.170;4.884;2022-08-21T13:46:30;27.20;81.00
29203;DHT22;16245;51.170;4.884;2022-08-21T13:48:59;27.30;83.30
29203;DHT22;16245;51.170;4.884;2022-08-21T13:51:25;27.30;81.60
29203;DHT22;16245;51.170;4.884;2022-08-21T13:53:52;27.40;81.10
29203;DHT22;16245;51.170;4.884;2022-08-21T13:58:48;27.40;80.00
29203;DHT22;16245;51.170;4.884;2022-08-21T14:01:36;27.20;81.20
29203;DHT22;16245;51.170;4.884;2022-08-21T14:04:23;27.20;82.80
29203;DHT22;16245;51.170;4.884;2022-08-21T14:06:50;27.30;81.90
29203;DHT22;16245;51.170;4.884;2022-08-21T14:09:27;27.50;80.60
29203;DHT22;16245;51.170;4.884;2022-08-21T14:11:54;27.50;79.60
29203;DHT22;16245;51.170;4.884;2022-08-21T14:14:33;27.60;80.00
29203;DHT22;16245;51.170;4.884;2022-08-21T14:17:04;27.80;80.20
29203;DHT22;16245;51.170;4.884;2022-08-21T14:19:40;27.90;81.80
29203;DHT22;16245;51.170;4.884;2022-08-21T14:27:53;28.00;82.30
29203;DHT22;16245;51.170;4.884;2022-08-21T14:30:21;28.00;82.00
29203;DHT22;16245;51.170;4.884;2022-08-21T14:32:47;27.80;84.40
29203;DHT22;16245;51.170;4.884;2022-08-21T14:35:14;27.70;84.70
29203;DHT22;16245;51.170;4.884;2022-08-21T14:37:43;27.70;84.40
29203;DHT22;16245;51.170;4.884;2022-08-21T14:40:09;27.60;84.30
29203;DHT22;16245;51.170;4.884;2022-08-21T14:42:35;27.70;84.50
29203;DHT22;16245;51.170;4.884;2022-08-21T14:45:15;27.80;83.70
29203;DHT22;16245;51.170;4.884;2022-08-21T14:47:41;27.60;83.50
29203;DHT22;16245;51.170;4.884;2022-08-21T14:50:09;27.50;85.40
29203;DHT22;16245;51.170;4.884;2022-08-21T14:52:34;27.60;86.90
29203;DHT22;16245;51.170;4.884;2022-08-21T14:55:01;27.70;86.00
29203;DHT22;16245;51.170;4.884;2022-08-21T14:57:29;27.80;86.20
29203;DHT22;16245;51.170;4.884;2022-08-21T14:59:55;27.90;86.00
29203;DHT22;16245;51.170;4.884;2022-08-21T15:02:21;28.10;84.10
29203;DHT22;16245;51.170;4.884;2022-08-21T15:04:46;28.20;86.00
29203;DHT22;16245;51.170;4.884;2022-08-21T15:07:12;28.10;84.80
29203;DHT22;16245;51.170;4.884;2022-08-21T15:09:38;28.00;83.90
29203;DHT22;16245;51.170;4.884;2022-08-21T15:12:05;27.70;84.40
29203;DHT22;16245;51.170;4.884;2022-08-21T15:14:34;27.80;83.80
29203;DHT22;16245;51.170;4.884;2022-08-21T15:17:02;27.60;84.60
29203;DHT22;16245;51.170;4.884;2022-08-21T15:19:29;27.40;85.90
29203;DHT22;16245;51.170;4.884;2022-08-21T15:21:55;27.30;85.20
29203;DHT22;16245;51.170;4.884;2022-08-21T15:24:21;27.30;84.40
29203;DHT22;16245;51.170;4.884;2022-08-21T15:26:47;27.60;84.30
29203;DHT22;16245;51.170;4.884;2022-08-21T15:29:13;27.80;84.50
29203;DHT22;16245;51.170;4.884;2022-08-21T15:31:58;27.80;84.50
29203;DHT22;16245;51.170;4.884;2022-08-21T15:34:27;27.70;84.00
29203;DHT22;16245;51.170;4.884;2022-08-21T15:36:54;27.60;83.50
29203;DHT22;16245;51.170;4.884;2022-08-21T15:39:20;27.40;84.90
29203;DHT22;16245;51.170;4.884;2022-08-21T15:41:46;27.30;85.20
29203;DHT22;16245;51.170;4.884;2022-08-21T15:44:12;27.20;85.20
29203;DHT22;16245;51.170;4.884;2022-08-21T15:46:39;27.10;86.00
29203;DHT22;16245;51.170;4.884;2022-08-21T15:49:05;27.00;87.30
29203;DHT22;16245;51.170;4.884;2022-08-21T15:51:32;26.90;87.90
29203;DHT22;16245;51.170;4.884;2022-08-21T15:53:57;26.80;88.00
29203;DHT22;16245;51.170;4.884;2022-08-21T15:56:26;26.70;89.10
29203;DHT22;16245;51.170;4.884;2022-08-21T15:58:58;26.50;89.00
29203;DHT22;16245;51.170;4.884;2022-08-21T16:01:25;26.30;90.00
29203;DHT22;16245;51.170;4.884;2022-08-21T16:03:52;26.30;90.10
29203;DHT22;16245;51.170;4.884;2022-08-21T16:06:19;26.40;90.00
29203;DHT22;16245;51.170;4.884;2022-08-21T16:08:45;26.40;88.80
29203;DHT22;16245;51.170;4.884;2022-08-21T16:11:15;26.40;88.60
29203;DHT22;16245;51.170;4.884;2022-08-21T16:13:42;26.30;90.10
29203;DHT22;16245;51.170;4.884;2022-08-21T16:16:16;26.10;90.60
29203;DHT22;16245;51.170;4.884;2022-08-21T16:18:43;25.90;90.90
29203;DHT22;16245;51.170;4.884;2022-08-21T16:21:09;26.00;91.10
29203;DHT22;16245;51.170;4.884;2022-08-21T16:23:35;26.00;91.10
29203;DHT22;16245;51.170;4.884;2022-08-21T16:26:04;26.10;90.40
29203;DHT22;16245;51.170;4.884;2022-08-21T16:28:31;26.10;90.60
29203;DHT22;16245;51.170;4.884;2022-08-21T16:30:59;26.10;90.80
29203;DHT22;16245;51.170;4.884;2022-08-21T16:33:35;26.10;90.90
29203;DHT22;16245;51.170;4.884;2022-08-21T16:36:02;25.80;91.20
29203;DHT22;16245;51.170;4.884;2022-08-21T16:38:29;25.80;91.70
29203;DHT22;16245;51.170;4.884;2022-08-21T16:40:55;25.90;91.60
29203;DHT22;16245;51.170;4.884;2022-08-21T16:43:26;25.80;91.90
29203;DHT22;16245;51.170;4.884;2022-08-21T16:45:53;25.60;91.60
29203;DHT22;16245;51.170;4.884;2022-08-21T16:48:20;25.70;91.40
29203;DHT22;16245;51.170;4.884;2022-08-21T16:50:46;25.60;91.70
29203;DHT22;16245;51.170;4.884;2022-08-21T16:53:11;25.60;92.00
29203;DHT22;16245;51.170;4.884;2022-08-21T16:55:38;25.40;92.10
29203;DHT22;16245;51.170;4.884;2022-08-21T16:58:14;25.40;92.40
29203;DHT22;16245;51.170;4.884;2022-08-21T17:00:41;25.20;92.10
29203;DHT22;16245;51.170;4.884;2022-08-21T17:03:13;25.30;92.10
29203;DHT22;16245;51.170;4.884;2022-08-21T17:05:40;25.20;92.10
29203;DHT22;16245;51.170;4.884;2022-08-21T17:08:06;25.20;92.10
29203;DHT22;16245;51.170;4.884;2022-08-21T17:10:33;25.10;92.30